Time,TemperatureF,DewpointF,PressureIn,WindDirection,WindDirectionDegrees,WindSpeedMPH,WindSpeedGustMPH,Humidity,HourlyPrecipIn,Conditions,Clouds,dailyrainin,SolarRadiationWatts/m^2,SoftwareType,DateUTC
2013-05-24 00:05:00,45.8,40.9,30.33,ENE,63,1.0,3.0,83,0.00,,CLR,0.00,0.00,VWS V14.01,2013-05-24 05:05:00,
2013-05-24 00:10:00,45.5,41.0,30.34,ENE,69,0.0,2.0,84,0.00,,CLR,0.00,0.00,VWS V14.01,2013-05-24 05:10:00,
2013-05-24 00:15:00,45.4,40.9,30.34,ENE,69,1.0,2.0,84,0.00,,CLR,0.00,0.00,VWS V14.01,2013-05-24 05:15:00,
2013-05-24 00:20:00,45.2,40.7,30.34,ENE,69,4.0,6.0,84,0.00,,CLR,0.00,0.00,VWS V14.01,2013-05-24 05:20:00,
2013-05-24 00:25:00,44.9,40.4,30.34,NNE,30,6.0,7.0,84,0.00,,CLR,0.00,0.00,VWS V14.01,2013-05-24 05:25:00,
2013-05-24 00:30:00,44.6,40.1,30.34,NE,38,4.0,4.0,84,0.00,,CLR,0.00,0.00,VWS V14.01,2013-05-24 05:30:00,
2013-05-24 00:35:00,44.5,40.0,30.34,NE,44,3.0,5.0,84,0.00,,CLR,0.00,0.00,VWS V14.01,2013-05-24 05:35:00,
2013-05-24 00:40:00,44.3,39.5,30.35,NE,53,7.0,7.0,83,0.00,,CLR,0.00,0.00,VWS V14.01,2013-05-24 05:40:00,
2013-05-24 00:45:00,44.1,39.0,30.35,NE,45,3.0,5.0,82,0.00,,CLR,0.00,0.00,VWS V14.01,2013-05-24 05:45:00,
2013-05-24 00:51:00,43.9,38.5,30.35,NE,46,3.0,4.0,81,0.00,,CLR,0.00,0.00,VWS V14.01,2013-05-24 05:51:00,
2013-05-24 00:56:00,43.8,38.4,30.36,NE,46,0.0,0.0,81,0.00,,CLR,0.00,0.00,VWS V14.01,2013-05-24 05:56:00,
2013-05-24 01:01:00,43.8,38.4,30.36,NE,49,1.0,2.0,81,0.00,,CLR,0.00,0.00,VWS V14.01,2013-05-24 06:01:00,
2013-05-24 01:07:00,43.6,38.2,30.36,NE,49,0.0,2.0,81,0.00,,CLR,0.00,0.00,VWS V14.01,2013-05-24 06:07:00,
2013-05-24 01:12:00,43.5,38.1,30.36,NE,53,2.0,3.0,81,0.00,,CLR,0.00,0.00,VWS V14.01,2013-05-24 06:12:00,
2013-05-24 01:17:00,43.3,37.9,30.36,NE,53,0.0,1.0,81,0.00,,CLR,0.00,0.00,VWS V14.01,2013-05-24 06:17:00,
2013-05-24 01:22:00,43.2,37.8,30.36,NE,53,2.0,3.0,81,0.00,,CLR,0.00,0.00,VWS V14.01,2013-05-24 06:22:00,
2013-05-24 01:27:00,43.1,37.7,30.36,NE,53,3.0,3.0,81,0.00,,CLR,0.00,0.00,VWS V14.01,2013-05-24 06:27:00,
2013-05-24 01:32:00,42.9,37.5,30.36,NE,53,1.0,3.0,81,0.00,,CLR,0.00,0.00,VWS V14.01,2013-05-24 06:32:00,
2013-05-24 01:37:00,42.8,37.4,30.37,NE,53,1.0,3.0,81,0.00,,CLR,0.00,0.00,VWS V14.01,2013-05-24 06:37:00,
2013-05-24 01:42:00,42.6,37.2,30.37,NE,53,1.0,3.0,81,0.00,,CLR,0.00,0.00,VWS V14.01,2013-05-24 06:42:00,
2013-05-24 01:48:00,42.5,37.1,30.37,NE,53,0.0,2.0,81,0.00,,CLR,0.00,0.00,VWS V14.01,2013-05-24 06:48:00,
2013-05-24 01:53:00,42.3,36.9,30.37,NE,53,0.0,0.0,81,0.00,,CLR,0.00,0.00,VWS V14.01,2013-05-24 06:53:00,
2013-05-24 01:58:00,42.3,36.9,30.37,NE,53,2.0,2.0,81,0.00,,CLR,0.00,0.00,VWS V14.01,2013-05-24 06:58:00,
2013-05-24 02:03:00,42.2,36.8,30.37,NE,53,2.0,2.0,81,0.00,,CLR,0.00,0.00,VWS V14.01,2013-05-24 07:03:00,
2013-05-24 02:08:00,42.1,36.7,30.38,NE,53,1.0,2.0,81,0.00,,CLR,0.00,0.00,VWS V14.01,2013-05-24 07:08:00,
2013-05-24 02:13:00,41.9,36.5,30.38,NE,53,1.0,1.0,81,0.00,,CLR,0.00,0.00,VWS V14.01,2013-05-24 07:13:00,
2013-05-24 02:18:00,41.8,36.4,30.38,NE,53,1.0,2.0,81,0.00,,CLR,0.00,0.00,VWS V14.01,2013-05-24 07:18:00,
2013-05-24 02:23:00,41.6,36.2,30.39,NE,53,0.0,2.0,81,0.00,,CLR,0.00,0.00,VWS V14.01,2013-05-24 07:23:00,
2013-05-24 02:28:00,41.5,36.1,30.39,NE,53,4.0,5.0,81,0.00,,CLR,0.00,0.00,VWS V14.01,2013-05-24 07:28:00,
2013-05-24 02:33:00,41.5,36.1,30.39,NE,53,2.0,3.0,81,0.00,,CLR,0.00,0.00,VWS V14.01,2013-05-24 07:33:00,
2013-05-24 02:38:00,41.3,35.9,30.39,NE,53,2.0,4.0,81,0.00,,CLR,0.00,0.00,VWS V14.01,2013-05-24 07:38:00,
2013-05-24 02:44:00,41.2,35.5,30.39,NE,47,2.0,5.0,80,0.00,,CLR,0.00,0.00,VWS V14.01,2013-05-24 07:44:00,
2013-05-24 02:49:00,41.2,35.5,30.39,NE,47,4.0,6.0,80,0.00,,CLR,0.00,0.00,VWS V14.01,2013-05-24 07:49:00,
2013-05-24 02:54:00,41.2,35.5,30.40,NE,40,0.0,2.0,80,0.00,,CLR,0.00,0.00,VWS V14.01,2013-05-24 07:54:00,
2013-05-24 03:00:00,41.2,35.5,30.40,NE,41,4.0,5.0,80,0.00,,CLR,0.00,0.00,VWS V14.01,2013-05-24 08:00:00,
2013-05-24 03:05:00,41.2,35.2,30.39,NNE,17,3.0,5.0,79,0.00,,CLR,0.00,0.00,VWS V14.01,2013-05-24 08:05:00,
2013-05-24 03:10:00,41.3,35.0,30.40,NE,40,5.0,7.0,78,0.00,,CLR,0.00,0.00,VWS V14.01,2013-05-24 08:10:00,
2013-05-24 03:15:00,41.5,34.8,30.40,NNE,25,3.0,8.0,77,0.00,,CLR,0.00,0.00,VWS V14.01,2013-05-24 08:15:00,
2013-05-24 03:20:00,41.5,34.5,30.40,NNE,18,5.0,5.0,76,0.00,,CLR,0.00,0.00,VWS V14.01,2013-05-24 08:20:00,
2013-05-24 03:25:00,41.5,34.5,30.40,NNE,31,5.0,6.0,76,0.00,,CLR,0.00,0.00,VWS V14.01,2013-05-24 08:25:00,
2013-05-24 03:30:00,41.5,34.5,30.40,NNE,30,6.0,7.0,76,0.00,,CLR,0.00,0.00,VWS V14.01,2013-05-24 08:30:00,
2013-05-24 03:35:00,41.3,34.7,30.40,NNE,15,6.0,9.0,77,0.00,,CLR,0.00,0.00,VWS V14.01,2013-05-24 08:35:00,
2013-05-24 03:40:00,41.2,34.5,30.40,NNE,24,5.0,7.0,77,0.00,,CLR,0.00,0.00,VWS V14.01,2013-05-24 08:40:00,
2013-05-24 03:45:00,41.1,34.5,30.40,NNE,24,4.0,4.0,77,0.00,,CLR,0.00,0.00,VWS V14.01,2013-05-24 08:45:00,
2013-05-24 03:50:00,40.9,34.6,30.40,NNE,24,3.0,3.0,78,0.00,,CLR,0.00,0.00,VWS V14.01,2013-05-24 08:50:00,
2013-05-24 03:55:00,40.9,34.6,30.40,NNE,26,3.0,4.0,78,0.00,,CLR,0.00,0.00,VWS V14.01,2013-05-24 08:55:00,
2013-05-24 04:00:00,40.8,34.8,30.40,NE,49,3.0,3.0,79,0.00,,CLR,0.00,0.00,VWS V14.01,2013-05-24 09:00:00,
2013-05-24 04:05:00,40.6,34.9,30.40,NE,49,5.0,5.0,80,0.00,,CLR,0.00,0.00,VWS V14.01,2013-05-24 09:05:00,
2013-05-24 04:10:00,40.5,35.1,30.40,NE,49,2.0,3.0,81,0.00,,CLR,0.00,0.00,VWS V14.01,2013-05-24 09:10:00,
2013-05-24 04:15:00,40.5,35.1,30.40,North,360,4.0,7.0,81,0.00,,CLR,0.00,0.00,VWS V14.01,2013-05-24 09:15:00,
2013-05-24 04:20:00,40.5,35.1,30.40,NNE,30,3.0,4.0,81,0.00,,CLR,0.00,0.00,VWS V14.01,2013-05-24 09:20:00,
2013-05-24 04:25:00,40.5,35.5,30.40,NNE,30,4.0,6.0,82,0.00,,CLR,0.00,0.00,VWS V14.01,2013-05-24 09:25:00,
2013-05-24 04:30:00,40.5,35.5,30.40,NNE,28,0.0,3.0,82,0.00,,CLR,0.00,0.00,VWS V14.01,2013-05-24 09:30:00,
2013-05-24 04:36:00,40.3,35.2,30.41,NNE,28,2.0,3.0,82,0.00,,CLR,0.00,0.00,VWS V14.01,2013-05-24 09:36:00,
2013-05-24 04:41:00,40.2,35.5,30.41,NNE,28,2.0,3.0,83,0.00,,CLR,0.00,0.00,VWS V14.01,2013-05-24 09:41:00,
2013-05-24 04:46:00,40.1,35.7,30.42,NNE,28,0.0,2.0,84,0.00,,CLR,0.00,0.00,VWS V14.01,2013-05-24 09:46:00,
2013-05-24 04:51:00,39.9,35.5,30.42,NNE,28,1.0,1.0,84,0.00,,CLR,0.00,0.00,VWS V14.01,2013-05-24 09:51:00,
2013-05-24 04:56:00,39.8,35.7,30.42,NNE,28,2.0,3.0,85,0.00,,CLR,0.00,0.00,VWS V14.01,2013-05-24 09:56:00,
2013-05-24 05:01:00,39.8,35.7,30.42,NNE,27,0.0,1.0,85,0.00,,CLR,0.00,0.00,VWS V14.01,2013-05-24 10:01:00,
2013-05-24 05:06:00,39.6,35.5,30.42,NNE,27,2.0,4.0,85,0.00,,CLR,0.00,0.00,VWS V14.01,2013-05-24 10:06:00,
2013-05-24 05:11:00,39.5,35.7,30.42,NNE,27,0.0,1.0,86,0.00,,CLR,0.00,0.00,VWS V14.01,2013-05-24 10:11:00,
2013-05-24 05:16:00,39.5,35.7,30.43,NNE,27,3.0,4.0,86,0.00,,CLR,0.00,0.00,VWS V14.01,2013-05-24 10:16:00,
2013-05-24 05:21:00,39.3,35.5,30.43,NNE,27,1.0,4.0,86,0.00,,CLR,0.00,0.00,VWS V14.01,2013-05-24 10:21:00,
2013-05-24 05:26:00,39.3,35.5,30.44,NNE,27,0.0,3.0,86,0.00,,CLR,0.00,0.00,VWS V14.01,2013-05-24 10:26:00,
2013-05-24 05:31:00,39.3,35.2,30.44,NNE,27,3.0,4.0,85,0.00,,CLR,0.00,0.00,VWS V14.01,2013-05-24 10:31:00,
2013-05-24 05:36:00,39.3,35.2,30.44,North,360,3.0,3.0,85,0.00,,CLR,0.00,5.00,VWS V14.01,2013-05-24 10:36:00,
2013-05-24 05:42:00,39.3,34.9,30.45,NNE,23,5.0,5.0,84,0.00,,CLR,0.00,9.00,VWS V14.01,2013-05-24 10:42:00,
2013-05-24 05:47:00,39.5,35.1,30.45,NNE,12,3.0,6.0,84,0.00,,CLR,0.00,9.00,VWS V14.01,2013-05-24 10:47:00,
2013-05-24 05:52:00,39.5,35.1,30.45,North,11,1.0,4.0,84,0.00,,CLR,0.00,12.00,VWS V14.01,2013-05-24 10:52:00,
2013-05-24 05:57:00,39.5,35.1,30.46,North,11,4.0,4.0,84,0.00,,CLR,0.00,14.00,VWS V14.01,2013-05-24 10:57:00,
2013-05-24 06:02:00,39.5,34.8,30.46,North,351,5.0,7.0,83,0.00,,CLR,0.00,18.00,VWS V14.01,2013-05-24 11:02:00,
2013-05-24 06:07:00,39.5,34.8,30.46,North,10,3.0,4.0,83,0.00,,CLR,0.00,19.00,VWS V14.01,2013-05-24 11:07:00,
2013-05-24 06:12:00,39.6,34.9,30.46,North,9,3.0,4.0,83,0.00,,CLR,0.00,23.00,VWS V14.01,2013-05-24 11:12:00,
2013-05-24 06:17:00,39.9,34.9,30.46,North,360,4.0,7.0,82,0.00,,CLR,0.00,42.00,VWS V14.01,2013-05-24 11:17:00,
2013-05-24 06:22:00,40.3,34.9,30.46,NW,316,2.0,6.0,81,0.00,,CLR,0.00,58.00,VWS V14.01,2013-05-24 11:22:00,
2013-05-24 06:27:00,40.8,35.4,30.47,North,360,0.0,3.0,81,0.00,,CLR,0.00,84.00,VWS V14.01,2013-05-24 11:27:00,
2013-05-24 06:32:00,41.1,35.4,30.48,NNE,22,1.0,5.0,80,0.00,,CLR,0.00,113.00,VWS V14.01,2013-05-24 11:32:00,
2013-05-24 06:37:00,41.2,35.2,30.48,North,351,4.0,7.0,79,0.00,,CLR,0.00,137.00,VWS V14.01,2013-05-24 11:37:00,
2013-05-24 06:42:00,41.5,35.5,30.48,North,9,2.0,3.0,79,0.00,,CLR,0.00,158.00,VWS V14.01,2013-05-24 11:42:00,
2013-05-24 06:47:00,41.8,35.5,30.49,NNE,16,2.0,4.0,78,0.00,,CLR,0.00,174.00,VWS V14.01,2013-05-24 11:47:00,
2013-05-24 06:52:00,42.1,35.4,30.49,NNE,28,2.0,5.0,77,0.00,,CLR,0.00,186.00,VWS V14.01,2013-05-24 11:52:00,
2013-05-24 06:57:00,42.3,35.3,30.49,NNE,24,0.0,6.0,76,0.00,,CLR,0.00,204.00,VWS V14.01,2013-05-24 11:57:00,
2013-05-24 07:02:00,42.3,35.0,30.49,NNW,336,6.0,10.0,75,0.00,,CLR,0.00,220.00,VWS V14.01,2013-05-24 12:02:00,
2013-05-24 07:07:00,42.5,34.8,30.50,NNW,327,8.0,8.0,74,0.00,,CLR,0.00,237.00,VWS V14.01,2013-05-24 12:07:00,
2013-05-24 07:12:00,42.6,34.9,30.50,North,5,8.0,9.0,74,0.00,,CLR,0.00,253.00,VWS V14.01,2013-05-24 12:12:00,
2013-05-24 07:17:00,42.8,34.8,30.51,NNE,18,8.0,9.0,73,0.00,,CLR,0.00,271.00,VWS V14.01,2013-05-24 12:17:00,
2013-05-24 07:22:00,42.9,34.8,30.51,NNE,24,5.0,7.0,73,0.00,,CLR,0.00,288.00,VWS V14.01,2013-05-24 12:22:00,
2013-05-24 07:27:00,43.2,34.8,30.51,NNE,12,5.0,10.0,72,0.00,,CLR,0.00,302.00,VWS V14.01,2013-05-24 12:27:00,
2013-05-24 07:32:00,43.3,34.9,30.51,NNW,341,2.0,6.0,72,0.00,,CLR,0.00,320.00,VWS V14.01,2013-05-24 12:32:00,
2013-05-24 07:37:00,43.6,35.2,30.51,NNE,24,2.0,7.0,72,0.00,,CLR,0.00,339.00,VWS V14.01,2013-05-24 12:37:00,
2013-05-24 07:43:00,44.1,35.7,30.51,NNW,345,4.0,6.0,72,0.00,,CLR,0.00,360.00,VWS V14.01,2013-05-24 12:43:00,
2013-05-24 07:48:00,44.2,35.0,30.52,North,10,9.0,9.0,70,0.00,,CLR,0.00,378.00,VWS V14.01,2013-05-24 12:48:00,
2013-05-24 07:53:00,44.2,35.4,30.52,NNE,28,9.0,9.0,71,0.00,,CLR,0.00,394.00,VWS V14.01,2013-05-24 12:53:00,
2013-05-24 07:58:00,44.3,34.8,30.52,North,360,1.0,8.0,69,0.00,,CLR,0.00,413.00,VWS V14.01,2013-05-24 12:58:00,
2013-05-24 08:03:00,44.6,35.1,30.53,NE,42,3.0,10.0,69,0.00,,CLR,0.00,431.00,VWS V14.01,2013-05-24 13:03:00,
2013-05-24 08:09:00,44.8,35.3,30.53,NNW,347,7.0,7.0,69,0.00,,CLR,0.00,450.00,VWS V14.01,2013-05-24 13:09:00,
2013-05-24 08:14:00,44.9,35.4,30.53,NE,50,7.0,9.0,69,0.00,,CLR,0.00,466.00,VWS V14.01,2013-05-24 13:14:00,
2013-05-24 08:19:00,45.1,35.2,30.53,North,360,3.0,8.0,68,0.00,,CLR,0.00,482.00,VWS V14.01,2013-05-24 13:19:00,
2013-05-24 08:24:00,45.2,34.9,30.52,NNE,17,5.0,8.0,67,0.00,,CLR,0.00,499.00,VWS V14.01,2013-05-24 13:24:00,
2013-05-24 08:29:00,45.5,35.6,30.53,NNE,26,4.0,10.0,68,0.00,,CLR,0.00,517.00,VWS V14.01,2013-05-24 13:29:00,
2013-05-24 08:34:00,46.1,36.1,30.53,NNE,13,8.0,9.0,68,0.00,,CLR,0.00,533.00,VWS V14.01,2013-05-24 13:34:00,
2013-05-24 08:39:00,46.0,34.5,30.53,NE,38,3.0,7.0,64,0.00,,CLR,0.00,552.00,VWS V14.01,2013-05-24 13:39:00,
2013-05-24 08:45:00,45.8,34.7,30.53,NNE,26,9.0,14.0,65,0.00,,CLR,0.00,571.00,VWS V14.01,2013-05-24 13:45:00,
2013-05-24 08:50:00,46.0,34.5,30.53,NNE,18,2.0,8.0,64,0.00,,CLR,0.00,587.00,VWS V14.01,2013-05-24 13:50:00,
2013-05-24 08:55:00,46.7,35.6,30.53,North,9,7.0,8.0,65,0.00,,CLR,0.00,605.00,VWS V14.01,2013-05-24 13:55:00,
2013-05-24 09:00:00,46.8,35.7,30.53,NNE,13,5.0,9.0,65,0.00,,CLR,0.00,619.00,VWS V14.01,2013-05-24 14:00:00,
2013-05-24 09:05:00,47.1,35.6,30.53,NE,38,5.0,7.0,64,0.00,,CLR,0.00,633.00,VWS V14.01,2013-05-24 14:05:00,
2013-05-24 09:10:00,47.4,35.5,30.53,NNW,339,8.0,8.0,63,0.00,,CLR,0.00,650.00,VWS V14.01,2013-05-24 14:10:00,
2013-05-24 09:15:00,47.6,35.2,30.53,North,11,10.0,11.0,62,0.00,,CLR,0.00,666.00,VWS V14.01,2013-05-24 14:15:00,
2013-05-24 09:21:00,47.6,34.8,30.53,NNE,17,6.0,10.0,61,0.00,,CLR,0.00,684.00,VWS V14.01,2013-05-24 14:21:00,
2013-05-24 09:26:00,47.6,34.8,30.53,North,360,11.0,11.0,61,0.00,,CLR,0.00,698.00,VWS V14.01,2013-05-24 14:26:00,
2013-05-24 09:32:00,47.7,35.7,30.53,NNW,335,6.0,11.0,63,0.00,,CLR,0.00,714.00,VWS V14.01,2013-05-24 14:32:00,
2013-05-24 09:38:00,48.3,36.3,30.53,NW,323,6.0,7.0,63,0.00,,CLR,0.00,733.00,VWS V14.01,2013-05-24 14:38:00,
2013-05-24 09:43:00,48.6,35.8,30.53,NE,36,8.0,12.0,61,0.00,,CLR,0.00,751.00,VWS V14.01,2013-05-24 14:43:00,
2013-05-24 09:48:00,48.9,36.1,30.54,North,360,3.0,7.0,61,0.00,,CLR,0.00,763.00,VWS V14.01,2013-05-24 14:48:00,
2013-05-24 09:53:00,49.2,36.8,30.53,NNE,13,5.0,10.0,62,0.00,,CLR,0.00,777.00,VWS V14.01,2013-05-24 14:53:00,
2013-05-24 09:58:00,49.4,36.5,30.54,NNE,24,5.0,9.0,61,0.00,,CLR,0.00,788.00,VWS V14.01,2013-05-24 14:58:00,
2013-05-24 10:03:00,49.5,35.3,30.54,NNE,25,3.0,8.0,58,0.00,,CLR,0.00,802.00,VWS V14.01,2013-05-24 15:03:00,
2013-05-24 10:08:00,49.5,36.2,30.54,North,360,3.0,7.0,60,0.00,,CLR,0.00,805.00,VWS V14.01,2013-05-24 15:08:00,
2013-05-24 10:14:00,49.9,36.2,30.54,NNE,30,6.0,10.0,59,0.00,,CLR,0.00,817.00,VWS V14.01,2013-05-24 15:14:00,
2013-05-24 10:19:00,49.8,35.6,30.54,NE,56,8.0,11.0,58,0.00,,CLR,0.00,826.00,VWS V14.01,2013-05-24 15:19:00,
2013-05-24 10:24:00,50.1,36.3,30.54,North,360,8.0,10.0,59,0.00,,CLR,0.00,840.00,VWS V14.01,2013-05-24 15:24:00,
2013-05-24 10:29:00,50.2,35.6,30.54,NE,35,5.0,8.0,57,0.00,,CLR,0.00,851.00,VWS V14.01,2013-05-24 15:29:00,
2013-05-24 10:34:00,51.1,37.7,30.54,North,360,7.0,7.0,60,0.00,,CLR,0.00,861.00,VWS V14.01,2013-05-24 15:34:00,
2013-05-24 10:39:00,51.4,38.4,30.54,NNW,329,5.0,6.0,61,0.00,,CLR,0.00,868.00,VWS V14.01,2013-05-24 15:39:00,
2013-05-24 10:45:00,51.6,37.3,30.54,North,360,4.0,6.0,58,0.00,,CLR,0.00,889.00,VWS V14.01,2013-05-24 15:45:00,
2013-05-24 10:50:00,52.0,37.2,30.53,NNE,28,5.0,8.0,57,0.00,,CLR,0.00,905.00,VWS V14.01,2013-05-24 15:50:00,
2013-05-24 10:55:00,52.3,37.5,30.53,North,360,5.0,7.0,57,0.00,,CLR,0.00,919.00,VWS V14.01,2013-05-24 15:55:00,
2013-05-24 11:00:00,53.1,37.4,30.53,NNE,21,0.0,5.0,55,0.00,,CLR,0.00,926.00,VWS V14.01,2013-05-24 16:00:00,
2013-05-24 11:05:00,53.3,36.1,30.53,NE,46,4.0,9.0,52,0.00,,CLR,0.00,926.00,VWS V14.01,2013-05-24 16:05:00,
2013-05-24 11:10:00,53.3,36.6,30.53,NNE,22,6.0,10.0,53,0.00,,CLR,0.00,932.00,VWS V14.01,2013-05-24 16:10:00,
2013-05-24 11:15:00,53.3,37.1,30.53,NNE,30,5.0,10.0,54,0.00,,CLR,0.00,939.00,VWS V14.01,2013-05-24 16:15:00,
2013-05-24 11:21:00,53.5,35.8,30.52,North,360,7.0,10.0,51,0.00,,CLR,0.00,949.00,VWS V14.01,2013-05-24 16:21:00,
2013-05-24 11:26:00,53.3,35.2,30.52,NE,35,9.0,12.0,50,0.00,,CLR,0.00,954.00,VWS V14.01,2013-05-24 16:26:00,
2013-05-24 11:32:00,53.6,36.9,30.51,NNE,19,7.0,11.0,53,0.00,,CLR,0.00,965.00,VWS V14.01,2013-05-24 16:32:00,
2013-05-24 11:37:00,53.9,36.2,30.52,NNE,29,8.0,12.0,51,0.00,,CLR,0.00,969.00,VWS V14.01,2013-05-24 16:37:00,
2013-05-24 11:42:00,54.4,36.7,30.51,East,84,12.0,12.0,51,0.00,,CLR,0.00,974.00,VWS V14.01,2013-05-24 16:42:00,
2013-05-24 11:47:00,54.5,37.2,30.52,NE,51,11.0,11.0,52,0.00,,CLR,0.00,981.00,VWS V14.01,2013-05-24 16:47:00,
2013-05-24 11:52:00,54.7,37.4,30.52,North,360,9.0,10.0,52,0.00,,CLR,0.00,984.00,VWS V14.01,2013-05-24 16:52:00,
2013-05-24 11:57:00,54.8,37.0,30.52,NNE,21,6.0,10.0,51,0.00,,CLR,0.00,990.00,VWS V14.01,2013-05-24 16:57:00,
2013-05-24 12:02:00,54.7,36.9,30.52,North,360,6.0,9.0,51,0.00,,CLR,0.00,995.00,VWS V14.01,2013-05-24 17:02:00,
2013-05-24 12:07:00,55.1,37.8,30.52,NNE,19,4.0,8.0,52,0.00,,CLR,0.00,997.00,VWS V14.01,2013-05-24 17:07:00,
2013-05-24 12:12:00,55.6,37.8,30.52,NNE,13,2.0,3.0,51,0.00,,CLR,0.00,1005.00,VWS V14.01,2013-05-24 17:12:00,
2013-05-24 12:17:00,56.0,35.5,30.52,North,360,5.0,11.0,46,0.00,,CLR,0.00,1013.00,VWS V14.01,2013-05-24 17:17:00,
2013-05-24 12:22:00,55.9,36.0,30.52,NE,40,8.0,11.0,47,0.00,,CLR,0.00,1014.00,VWS V14.01,2013-05-24 17:22:00,
2013-05-24 12:27:00,56.0,35.0,30.51,NNE,24,8.0,11.0,45,0.00,,CLR,0.00,1014.00,VWS V14.01,2013-05-24 17:27:00,
2013-05-24 12:32:00,56.6,37.2,30.51,NE,34,6.0,8.0,48,0.00,,CLR,0.00,1018.00,VWS V14.01,2013-05-24 17:32:00,
2013-05-24 12:37:00,56.9,35.2,30.51,NNE,29,4.0,13.0,44,0.00,,CLR,0.00,1021.00,VWS V14.01,2013-05-24 17:37:00,
2013-05-24 12:42:00,57.0,37.0,30.51,NNE,18,3.0,6.0,47,0.00,,CLR,0.00,1021.00,VWS V14.01,2013-05-24 17:42:00,
2013-05-24 12:47:00,57.3,37.8,30.51,North,351,6.0,10.0,48,0.00,,CLR,0.00,1021.00,VWS V14.01,2013-05-24 17:47:00,
2013-05-24 12:53:00,57.3,37.3,30.51,NE,37,13.0,13.0,47,0.00,,CLR,0.00,1021.00,VWS V14.01,2013-05-24 17:53:00,
2013-05-24 12:58:00,57.2,36.6,30.51,NNE,19,6.0,7.0,46,0.00,,CLR,0.00,1021.00,VWS V14.01,2013-05-24 17:58:00,
2013-05-24 13:03:00,57.6,37.5,30.51,NNE,25,10.0,10.0,47,0.00,,CLR,0.00,1020.00,VWS V14.01,2013-05-24 18:03:00,
2013-05-24 13:08:00,58.1,38.0,30.50,NE,50,8.0,9.0,47,0.00,,CLR,0.00,1021.00,VWS V14.01,2013-05-24 18:08:00,
2013-05-24 13:13:00,58.3,39.8,30.50,North,351,5.0,8.0,50,0.00,,CLR,0.00,1020.00,VWS V14.01,2013-05-24 18:13:00,
2013-05-24 13:18:00,58.9,38.7,30.50,NNE,24,5.0,8.0,47,0.00,,CLR,0.00,1018.00,VWS V14.01,2013-05-24 18:18:00,
2013-05-24 13:24:00,58.9,37.0,30.50,NNE,14,3.0,8.0,44,0.00,,CLR,0.00,1018.00,VWS V14.01,2013-05-24 18:24:00,
2013-05-24 13:29:00,59.0,37.7,30.50,NE,36,8.0,10.0,45,0.00,,CLR,0.00,1014.00,VWS V14.01,2013-05-24 18:29:00,
2013-05-24 13:34:00,59.2,39.5,30.49,North,349,10.0,11.0,48,0.00,,CLR,0.00,1009.00,VWS V14.01,2013-05-24 18:34:00,
2013-05-24 13:39:00,59.3,36.2,30.50,NNE,17,2.0,10.0,42,0.00,,CLR,0.00,1009.00,VWS V14.01,2013-05-24 18:39:00,
2013-05-24 13:44:00,59.5,38.7,30.50,NNE,26,0.0,8.0,46,0.00,,CLR,0.00,1004.00,VWS V14.01,2013-05-24 18:44:00,
2013-05-24 13:49:00,59.6,39.4,30.49,NNE,28,5.0,12.0,47,0.00,,CLR,0.00,1000.00,VWS V14.01,2013-05-24 18:49:00,
2013-05-24 13:54:00,59.8,38.4,30.49,North,360,10.0,13.0,45,0.00,,CLR,0.00,997.00,VWS V14.01,2013-05-24 18:54:00,
2013-05-24 13:59:00,59.5,38.2,30.49,NE,34,6.0,7.0,45,0.00,,CLR,0.00,993.00,VWS V14.01,2013-05-24 18:59:00,
2013-05-24 14:05:00,59.9,35.5,30.49,North,11,8.0,9.0,40,0.00,,CLR,0.00,995.00,VWS V14.01,2013-05-24 19:05:00,
2013-05-24 14:10:00,60.2,37.6,30.49,NE,46,12.0,12.0,43,0.00,,CLR,0.00,990.00,VWS V14.01,2013-05-24 19:10:00,
2013-05-24 14:15:00,60.2,37.6,30.48,North,351,4.0,6.0,43,0.00,,CLR,0.00,991.00,VWS V14.01,2013-05-24 19:15:00,
2013-05-24 14:20:00,60.9,35.1,30.48,NNE,31,2.0,4.0,38,0.00,,CLR,0.00,969.00,VWS V14.01,2013-05-24 19:20:00,
2013-05-24 14:25:00,60.9,37.7,30.48,North,9,1.0,5.0,42,0.00,,CLR,0.00,990.00,VWS V14.01,2013-05-24 19:25:00,
2013-05-24 14:30:00,60.9,35.8,30.48,NNE,28,8.0,8.0,39,0.00,,CLR,0.00,991.00,VWS V14.01,2013-05-24 19:30:00,
2013-05-24 14:35:00,60.9,37.7,30.48,NE,51,12.0,13.0,42,0.00,,CLR,0.00,995.00,VWS V14.01,2013-05-24 19:35:00,
2013-05-24 14:41:00,61.2,37.3,30.48,North,360,5.0,10.0,41,0.00,,CLR,0.00,949.00,VWS V14.01,2013-05-24 19:41:00,
2013-05-24 14:46:00,61.3,38.6,30.47,ENE,59,3.0,8.0,43,0.00,,CLR,0.00,970.00,VWS V14.01,2013-05-24 19:46:00,
2013-05-24 14:51:00,61.5,37.6,30.47,ENE,69,6.0,9.0,41,0.00,,CLR,0.00,958.00,VWS V14.01,2013-05-24 19:51:00,
2013-05-24 14:56:00,61.8,37.2,30.46,NNE,25,7.0,8.0,40,0.00,,CLR,0.00,921.00,VWS V14.01,2013-05-24 19:56:00,
2013-05-24 15:01:00,61.8,36.0,30.46,NE,41,7.0,7.0,38,0.00,,CLR,0.00,925.00,VWS V14.01,2013-05-24 20:01:00,
2013-05-24 15:06:00,61.8,37.2,30.46,NNE,26,8.0,12.0,40,0.00,,CLR,0.00,896.00,VWS V14.01,2013-05-24 20:06:00,
2013-05-24 15:11:00,61.6,35.8,30.46,NNE,24,8.0,11.0,38,0.00,,CLR,0.00,856.00,VWS V14.01,2013-05-24 20:11:00,
2013-05-24 15:16:00,62.0,37.4,30.46,NNE,32,5.0,8.0,40,0.00,,CLR,0.00,896.00,VWS V14.01,2013-05-24 20:16:00,
2013-05-24 15:21:00,62.4,35.8,30.45,ENE,63,4.0,6.0,37,0.00,,CLR,0.00,893.00,VWS V14.01,2013-05-24 20:21:00,
2013-05-24 15:26:00,62.6,34.6,30.45,ENE,58,10.0,11.0,35,0.00,,CLR,0.00,886.00,VWS V14.01,2013-05-24 20:26:00,
2013-05-24 15:31:00,62.6,29.9,30.45,ENE,63,4.0,8.0,29,0.00,,CLR,0.00,879.00,VWS V14.01,2013-05-24 20:31:00,
2013-05-24 15:36:00,62.7,31.6,30.44,NE,42,4.0,6.0,31,0.00,,CLR,0.00,868.00,VWS V14.01,2013-05-24 20:36:00,
2013-05-24 15:42:00,62.7,29.1,30.45,NE,51,5.0,5.0,28,0.00,,CLR,0.00,851.00,VWS V14.01,2013-05-24 20:42:00,
2013-05-24 15:47:00,62.9,32.6,30.44,ENE,70,4.0,8.0,32,0.00,,CLR,0.00,835.00,VWS V14.01,2013-05-24 20:47:00,
2013-05-24 15:53:00,63.1,33.6,30.44,NE,35,4.0,10.0,33,0.00,,CLR,0.00,817.00,VWS V14.01,2013-05-24 20:53:00,
2013-05-24 15:58:00,63.2,32.1,30.44,NNE,12,5.0,12.0,31,0.00,,CLR,0.00,805.00,VWS V14.01,2013-05-24 20:58:00,
2013-05-24 16:03:00,63.2,34.4,30.44,NNE,14,2.0,3.0,34,0.00,,CLR,0.00,789.00,VWS V14.01,2013-05-24 21:03:00,
2013-05-24 16:09:00,63.5,35.4,30.44,NNE,28,3.0,5.0,35,0.00,,CLR,0.00,772.00,VWS V14.01,2013-05-24 21:09:00,
2013-05-24 16:14:00,64.2,34.5,30.44,NNE,28,2.0,2.0,33,0.00,,CLR,0.00,754.00,VWS V14.01,2013-05-24 21:14:00,
2013-05-24 16:19:00,64.5,36.3,30.44,SSE,163,5.0,7.0,35,0.00,,CLR,0.00,740.00,VWS V14.01,2013-05-24 21:19:00,
2013-05-24 16:25:00,64.8,37.2,30.44,South,172,4.0,4.0,36,0.00,,CLR,0.00,724.00,VWS V14.01,2013-05-24 21:25:00,
2013-05-24 16:30:00,65.0,36.0,30.44,NNE,32,7.0,10.0,34,0.00,,CLR,0.00,710.00,VWS V14.01,2013-05-24 21:30:00,
2013-05-24 16:35:00,65.0,35.2,30.43,NE,42,3.0,4.0,33,0.00,,CLR,0.00,693.00,VWS V14.01,2013-05-24 21:35:00,
2013-05-24 16:40:00,65.5,35.7,30.43,NE,53,3.0,5.0,33,0.00,,CLR,0.00,677.00,VWS V14.01,2013-05-24 21:40:00,
2013-05-24 16:45:00,65.5,38.6,30.42,NE,51,2.0,4.0,37,0.00,,CLR,0.00,659.00,VWS V14.01,2013-05-24 21:45:00,
2013-05-24 16:50:00,65.5,37.2,30.42,ENE,76,0.0,1.0,35,0.00,,CLR,0.00,642.00,VWS V14.01,2013-05-24 21:50:00,
2013-05-24 16:55:00,65.6,34.2,30.42,NE,52,0.0,7.0,31,0.00,,CLR,0.00,626.00,VWS V14.01,2013-05-24 21:55:00,
2013-05-24 17:00:00,65.8,35.9,30.42,NNW,348,4.0,6.0,33,0.00,,CLR,0.00,606.00,VWS V14.01,2013-05-24 22:00:00,
2013-05-24 17:05:00,65.8,35.2,30.42,NNE,19,4.0,10.0,32,0.00,,CLR,0.00,589.00,VWS V14.01,2013-05-24 22:05:00,
2013-05-24 17:10:00,66.0,37.6,30.41,NE,36,7.0,7.0,35,0.00,,CLR,0.00,570.00,VWS V14.01,2013-05-24 22:10:00,
2013-05-24 17:16:00,66.0,33.7,30.41,NNE,25,7.0,7.0,30,0.00,,CLR,0.00,548.00,VWS V14.01,2013-05-24 22:16:00,
2013-05-24 17:21:00,65.8,36.7,30.41,NE,44,0.0,1.0,34,0.00,,CLR,0.00,531.00,VWS V14.01,2013-05-24 22:21:00,
2013-05-24 17:26:00,65.8,34.3,30.41,NE,44,0.0,2.0,31,0.00,,CLR,0.00,513.00,VWS V14.01,2013-05-24 22:26:00,
2013-05-24 17:31:00,66.0,32.0,30.41,ESE,107,2.0,7.0,28,0.00,,CLR,0.00,497.00,VWS V14.01,2013-05-24 22:31:00,
2013-05-24 17:36:00,66.1,32.1,30.41,SE,140,9.0,9.0,28,0.00,,CLR,0.00,480.00,VWS V14.01,2013-05-24 22:36:00,
2013-05-24 17:41:00,66.3,33.1,30.41,East,100,1.0,6.0,29,0.00,,CLR,0.00,462.00,VWS V14.01,2013-05-24 22:41:00,
2013-05-24 17:46:00,66.3,31.4,30.41,SE,130,0.0,1.0,27,0.00,,CLR,0.00,441.00,VWS V14.01,2013-05-24 22:46:00,
2013-05-24 17:51:00,66.4,32.3,30.41,NNE,33,4.0,7.0,28,0.00,,CLR,0.00,425.00,VWS V14.01,2013-05-24 22:51:00,
2013-05-24 17:56:00,66.6,31.6,30.40,NE,36,0.0,1.0,27,0.00,,CLR,0.00,408.00,VWS V14.01,2013-05-24 22:56:00,
2013-05-24 18:02:00,66.4,31.4,30.40,East,94,2.0,5.0,27,0.00,,CLR,0.00,387.00,VWS V14.01,2013-05-24 23:02:00,
2013-05-24 18:07:00,66.3,30.4,30.39,East,87,3.0,6.0,26,0.00,,CLR,0.00,371.00,VWS V14.01,2013-05-24 23:07:00,
2013-05-24 18:12:00,66.4,30.5,30.39,ENE,72,1.0,2.0,26,0.00,,CLR,0.00,353.00,VWS V14.01,2013-05-24 23:12:00,
2013-05-24 18:17:00,66.4,29.5,30.39,East,88,2.0,5.0,25,0.00,,CLR,0.00,336.00,VWS V14.01,2013-05-24 23:17:00,
2013-05-24 18:23:00,66.3,30.4,30.39,East,90,4.0,5.0,26,0.00,,CLR,0.00,313.00,VWS V14.01,2013-05-24 23:23:00,
2013-05-24 18:28:00,66.3,31.4,30.39,East,90,1.0,2.0,27,0.00,,CLR,0.00,297.00,VWS V14.01,2013-05-24 23:28:00,
2013-05-24 18:33:00,66.0,31.1,30.39,SE,144,7.0,8.0,27,0.00,,CLR,0.00,278.00,VWS V14.01,2013-05-24 23:33:00,
2013-05-24 18:38:00,65.8,31.8,30.39,SE,133,4.0,5.0,28,0.00,,CLR,0.00,260.00,VWS V14.01,2013-05-24 23:38:00,
2013-05-24 18:44:00,65.8,34.3,30.39,SE,134,2.0,6.0,31,0.00,,CLR,0.00,237.00,VWS V14.01,2013-05-24 23:44:00,
2013-05-24 18:50:00,66.0,32.0,30.38,East,86,1.0,4.0,28,0.00,,CLR,0.00,216.00,VWS V14.01,2013-05-24 23:50:00,
2013-05-24 18:55:00,66.0,32.9,30.38,East,86,1.0,3.0,29,0.00,,CLR,0.00,199.00,VWS V14.01,2013-05-24 23:55:00,
2013-05-24 19:00:00,65.8,32.7,30.38,East,80,3.0,4.0,29,0.00,,CLR,0.00,183.00,VWS V14.01,2013-05-25 00:00:00,
2013-05-24 19:05:00,65.8,32.7,30.38,East,84,1.0,3.0,29,0.00,,CLR,0.00,167.00,VWS V14.01,2013-05-25 00:05:00,
2013-05-24 19:10:00,65.8,32.7,30.38,East,84,0.0,0.0,29,0.00,,CLR,0.00,149.00,VWS V14.01,2013-05-25 00:10:00,
2013-05-24 19:15:00,65.8,33.5,30.38,East,86,0.0,2.0,30,0.00,,CLR,0.00,137.00,VWS V14.01,2013-05-25 00:15:00,
2013-05-24 19:20:00,65.8,32.7,30.39,East,85,0.0,0.0,29,0.00,,CLR,0.00,114.00,VWS V14.01,2013-05-25 00:20:00,
2013-05-24 19:26:00,65.6,31.6,30.39,SE,144,1.0,4.0,28,0.00,,CLR,0.00,102.00,VWS V14.01,2013-05-25 00:26:00,
2013-05-24 19:31:00,65.3,32.3,30.39,SE,144,2.0,2.0,29,0.00,,CLR,0.00,28.00,VWS V14.01,2013-05-25 00:31:00,
2013-05-24 19:36:00,65.0,32.8,30.39,SE,144,0.0,2.0,30,0.00,,CLR,0.00,25.00,VWS V14.01,2013-05-25 00:36:00,
2013-05-24 19:41:00,64.8,32.7,30.39,SE,144,0.0,1.0,30,0.00,,CLR,0.00,21.00,VWS V14.01,2013-05-25 00:41:00,
2013-05-24 19:46:00,64.7,32.6,30.39,SE,141,0.0,2.0,30,0.00,,CLR,0.00,18.00,VWS V14.01,2013-05-25 00:46:00,
2013-05-24 19:51:00,64.5,32.4,30.39,SE,141,1.0,2.0,30,0.00,,CLR,0.00,16.00,VWS V14.01,2013-05-25 00:51:00,
2013-05-24 19:56:00,64.3,33.0,30.39,SE,141,0.0,0.0,31,0.00,,CLR,0.00,14.00,VWS V14.01,2013-05-25 00:56:00,
2013-05-24 20:01:00,64.0,36.5,30.39,SE,141,0.0,2.0,36,0.00,,CLR,0.00,12.00,VWS V14.01,2013-05-25 01:01:00,
2013-05-24 20:06:00,63.4,35.3,30.39,SE,138,4.0,5.0,35,0.00,,CLR,0.00,9.00,VWS V14.01,2013-05-25 01:06:00,
2013-05-24 20:11:00,62.9,34.8,30.39,SE,138,4.0,5.0,35,0.00,,CLR,0.00,5.00,VWS V14.01,2013-05-25 01:11:00,
2013-05-24 20:16:00,62.6,34.6,30.39,SE,138,0.0,0.0,35,0.00,,CLR,0.00,0.00,VWS V14.01,2013-05-25 01:16:00,
2013-05-24 20:21:00,62.3,36.4,30.39,SE,138,0.0,1.0,38,0.00,,CLR,0.00,0.00,VWS V14.01,2013-05-25 01:21:00,
2013-05-24 20:27:00,61.8,36.6,30.39,SE,138,0.0,0.0,39,0.00,,CLR,0.00,0.00,VWS V14.01,2013-05-25 01:27:00,
2013-05-24 20:32:00,61.2,36.7,30.39,SE,138,2.0,2.0,40,0.00,,CLR,0.00,0.00,VWS V14.01,2013-05-25 01:32:00,
2013-05-24 20:37:00,60.9,36.4,30.39,SE,136,1.0,5.0,40,0.00,,CLR,0.00,0.00,VWS V14.01,2013-05-25 01:37:00,
2013-05-24 20:42:00,60.5,36.7,30.39,SE,136,0.0,0.0,41,0.00,,CLR,0.00,0.00,VWS V14.01,2013-05-25 01:42:00,
2013-05-24 20:47:00,60.2,36.4,30.39,SE,136,0.0,0.0,41,0.00,,CLR,0.00,0.00,VWS V14.01,2013-05-25 01:47:00,
2013-05-24 20:52:00,59.9,36.2,30.40,SE,136,0.0,1.0,41,0.00,,CLR,0.00,0.00,VWS V14.01,2013-05-25 01:52:00,
2013-05-24 20:57:00,59.6,35.9,30.40,SE,136,0.0,0.0,41,0.00,,CLR,0.00,0.00,VWS V14.01,2013-05-25 01:57:00,
2013-05-24 21:03:00,59.5,36.4,30.40,SE,136,0.0,1.0,42,0.00,,CLR,0.00,0.00,VWS V14.01,2013-05-25 02:03:00,
2013-05-24 21:08:00,59.2,35.5,30.40,SE,136,0.0,2.0,41,0.00,,CLR,0.00,0.00,VWS V14.01,2013-05-25 02:08:00,
2013-05-24 21:14:00,59.0,35.3,30.40,SE,136,0.0,4.0,41,0.00,,CLR,0.00,0.00,VWS V14.01,2013-05-25 02:14:00,
2013-05-24 21:19:00,58.9,35.9,30.40,SE,136,2.0,4.0,42,0.00,,CLR,0.00,0.00,VWS V14.01,2013-05-25 02:19:00,
2013-05-24 21:24:00,58.7,35.7,30.40,SE,135,4.0,4.0,42,0.00,,CLR,0.00,0.00,VWS V14.01,2013-05-25 02:24:00,
2013-05-24 21:29:00,58.6,36.2,30.40,SE,126,2.0,5.0,43,0.00,,CLR,0.00,0.00,VWS V14.01,2013-05-25 02:29:00,
2013-05-24 21:34:00,58.4,36.0,30.41,ENE,64,4.0,4.0,43,0.00,,CLR,0.00,0.00,VWS V14.01,2013-05-25 02:34:00,
2013-05-24 21:39:00,58.1,36.3,30.41,ENE,63,2.0,4.0,44,0.00,,CLR,0.00,0.00,VWS V14.01,2013-05-25 02:39:00,
2013-05-24 21:44:00,57.8,36.6,30.41,ENE,62,3.0,4.0,45,0.00,,CLR,0.00,0.00,VWS V14.01,2013-05-25 02:44:00,
2013-05-24 21:49:00,57.3,36.7,30.42,ENE,57,1.0,4.0,46,0.00,,CLR,0.00,0.00,VWS V14.01,2013-05-25 02:49:00,
2013-05-24 21:54:00,57.0,34.8,30.42,ENE,58,2.0,3.0,43,0.00,,CLR,0.00,0.00,VWS V14.01,2013-05-25 02:54:00,
2013-05-24 21:59:00,56.9,36.9,30.42,East,80,1.0,2.0,47,0.00,,CLR,0.00,0.00,VWS V14.01,2013-05-25 02:59:00,
2013-05-24 22:04:00,56.6,36.6,30.43,East,80,1.0,3.0,47,0.00,,CLR,0.00,0.00,VWS V14.01,2013-05-25 03:04:00,
2013-05-24 22:09:00,56.3,36.9,30.42,East,80,1.0,4.0,48,0.00,,CLR,0.00,0.00,VWS V14.01,2013-05-25 03:09:00,
2013-05-24 22:14:00,56.0,37.1,30.42,East,80,1.0,1.0,49,0.00,,CLR,0.00,0.00,VWS V14.01,2013-05-25 03:14:00,
2013-05-24 22:20:00,55.6,37.3,30.43,East,80,2.0,3.0,50,0.00,,CLR,0.00,0.00,VWS V14.01,2013-05-25 03:20:00,
2013-05-24 22:25:00,55.1,37.8,30.43,ENE,78,4.0,6.0,52,0.00,,CLR,0.00,0.00,VWS V14.01,2013-05-25 03:25:00,
2013-05-24 22:30:00,54.7,37.9,30.43,ENE,72,2.0,5.0,53,0.00,,CLR,0.00,0.00,VWS V14.01,2013-05-25 03:30:00,
2013-05-24 22:35:00,54.4,37.6,30.44,NE,46,3.0,6.0,53,0.00,,CLR,0.00,0.00,VWS V14.01,2013-05-25 03:35:00,
2013-05-24 22:41:00,53.9,36.7,30.44,NE,42,5.0,5.0,52,0.00,,CLR,0.00,0.00,VWS V14.01,2013-05-25 03:41:00,
2013-05-24 22:46:00,53.8,36.6,30.44,NE,44,5.0,8.0,52,0.00,,CLR,0.00,0.00,VWS V14.01,2013-05-25 03:46:00,
2013-05-24 22:51:00,53.5,36.8,30.44,NNE,31,4.0,6.0,53,0.00,,CLR,0.00,0.00,VWS V14.01,2013-05-25 03:51:00,
2013-05-24 22:56:00,53.3,36.6,30.45,ENE,68,3.0,6.0,53,0.00,,CLR,0.00,0.00,VWS V14.01,2013-05-25 03:56:00,
2013-05-24 23:01:00,53.1,36.4,30.45,NNE,26,3.0,8.0,53,0.00,,CLR,0.00,0.00,VWS V14.01,2013-05-25 04:01:00,
2013-05-24 23:02:00,53.1,36.4,30.45,NNE,26,1.0,4.0,53,0.00,,CLR,0.00,0.00,VWS V14.01,2013-05-25 04:02:00,
2013-05-24 23:06:00,52.8,36.6,30.45,NE,51,5.0,5.0,54,0.00,,CLR,0.00,0.00,VWS V14.01,2013-05-25 04:06:00,
2013-05-24 23:07:00,52.8,36.6,30.45,NE,47,3.0,3.0,54,0.00,,CLR,0.00,0.00,VWS V14.01,2013-05-25 04:07:00,
2013-05-24 23:09:00,52.6,36.9,30.45,NE,47,3.0,3.0,55,0.00,,CLR,0.00,0.00,VWS V14.01,2013-05-25 04:09:00,
2013-05-24 23:14:00,52.2,37.0,30.45,NE,47,6.0,6.0,56,0.00,,CLR,0.00,0.00,VWS V14.01,2013-05-25 04:14:00,
2013-05-24 23:19:00,51.7,37.0,30.45,NE,40,3.0,5.0,57,0.00,,CLR,0.00,0.00,VWS V14.01,2013-05-25 04:19:00,
2013-05-24 23:24:00,51.4,36.7,30.45,NE,38,3.0,5.0,57,0.00,,CLR,0.00,0.00,VWS V14.01,2013-05-25 04:24:00,
2013-05-24 23:30:00,51.1,36.4,30.45,NE,45,2.0,6.0,57,0.00,,CLR,0.00,0.00,VWS V14.01,2013-05-25 04:30:00,
2013-05-24 23:35:00,51.0,36.8,30.45,NE,49,3.0,4.0,58,0.00,,CLR,0.00,0.00,VWS V14.01,2013-05-25 04:35:00,
2013-05-24 23:40:00,50.7,36.5,30.45,NE,45,3.0,4.0,58,0.00,,CLR,0.00,0.00,VWS V14.01,2013-05-25 04:40:00,
2013-05-24 23:45:00,50.5,36.7,30.45,NE,44,3.0,6.0,59,0.00,,CLR,0.00,0.00,VWS V14.01,2013-05-25 04:45:00,
2013-05-24 23:51:00,50.1,36.8,30.45,NE,49,3.0,5.0,60,0.00,,CLR,0.00,0.00,VWS V14.01,2013-05-25 04:51:00,
2013-05-24 23:56:00,49.9,36.6,30.45,NE,51,3.0,4.0,60,0.00,,CLR,0.00,0.00,VWS V14.01,2013-05-25 04:56:00,